sensor_id;sensor_type;location;lat;lon;timestamp;P1;durP1;ratioP1;P2;durP2;ratioP2
67528;SDS011;54366;51.980;5.856;2023-02-28T00:01:43;3.55;;;2.45;;
67528;SDS011;54366;51.980;5.856;2023-02-28T00:04:22;3.35;;;2.20;;
67528;SDS011;54366;51.980;5.856;2023-02-28T00:06:55;3.53;;;2.53;;
67528;SDS011;54366;51.980;5.856;2023-02-28T00:09:28;4.18;;;2.60;;
67528;SDS011;54366;51.980;5.856;2023-02-28T00:12:01;4.13;;;2.22;;
67528;SDS011;54366;51.980;5.856;2023-02-28T00:14:41;3.75;;;2.50;;
67528;SDS011;54366;51.980;5.856;2023-02-28T00:17:14;3.25;;;2.05;;
67528;SDS011;54366;51.980;5.856;2023-02-28T00:19:48;3.20;;;2.63;;
67528;SDS011;54366;51.980;5.856;2023-02-28T00:22:22;3.38;;;2.60;;
67528;SDS011;54366;51.980;5.856;2023-02-28T00:24:55;3.58;;;2.50;;
67528;SDS011;54366;51.980;5.856;2023-02-28T00:27:29;3.97;;;2.40;;
67528;SDS011;54366;51.980;5.856;2023-02-28T00:29:55;5.15;;;2.90;;
67528;SDS011;54366;51.980;5.856;2023-02-28T00:32:29;7.05;;;3.55;;
67528;SDS011;54366;51.980;5.856;2023-02-28T00:35:02;4.60;;;3.08;;
67528;SDS011;54366;51.980;5.856;2023-02-28T00:37:36;3.78;;;3.10;;
67528;SDS011;54366;51.980;5.856;2023-02-28T00:40:10;3.92;;;2.92;;
67528;SDS011;54366;51.980;5.856;2023-02-28T00:42:43;4.18;;;1.80;;
67528;SDS011;54366;51.980;5.856;2023-02-28T00:45:16;3.85;;;2.40;;
67528;SDS011;54366;51.980;5.856;2023-02-28T00:47:49;4.28;;;2.60;;
67528;SDS011;54366;51.980;5.856;2023-02-28T00:50:22;2.53;;;2.17;;
67528;SDS011;54366;51.980;5.856;2023-02-28T00:52:56;3.33;;;2.30;;
67528;SDS011;54366;51.980;5.856;2023-02-28T00:55:29;3.15;;;2.20;;
67528;SDS011;54366;51.980;5.856;2023-02-28T00:58:03;3.08;;;2.20;;
67528;SDS011;54366;51.980;5.856;2023-02-28T01:00:30;2.10;;;1.90;;
67528;SDS011;54366;51.980;5.856;2023-02-28T01:03:03;3.23;;;2.30;;
67528;SDS011;54366;51.980;5.856;2023-02-28T01:05:30;3.53;;;2.17;;
67528;SDS011;54366;51.980;5.856;2023-02-28T01:08:02;2.97;;;2.13;;
67528;SDS011;54366;51.980;5.856;2023-02-28T01:10:35;2.92;;;2.28;;
67528;SDS011;54366;51.980;5.856;2023-02-28T01:13:08;2.53;;;2.33;;
67528;SDS011;54366;51.980;5.856;2023-02-28T01:15:43;3.47;;;2.78;;
67528;SDS011;54366;51.980;5.856;2023-02-28T01:18:27;4.70;;;3.03;;
67528;SDS011;54366;51.980;5.856;2023-02-28T01:21:05;3.88;;;2.78;;
67528;SDS011;54366;51.980;5.856;2023-02-28T01:23:44;5.80;;;2.60;;
67528;SDS011;54366;51.980;5.856;2023-02-28T01:26:18;3.60;;;2.45;;
67528;SDS011;54366;51.980;5.856;2023-02-28T01:28:52;3.55;;;2.70;;
67528;SDS011;54366;51.980;5.856;2023-02-28T01:31:25;3.38;;;2.28;;
67528;SDS011;54366;51.980;5.856;2023-02-28T01:33:58;3.38;;;2.28;;
67528;SDS011;54366;51.980;5.856;2023-02-28T01:36:31;4.40;;;2.30;;
67528;SDS011;54366;51.980;5.856;2023-02-28T01:38:58;3.83;;;2.78;;
67528;SDS011;54366;51.980;5.856;2023-02-28T01:41:32;2.90;;;2.60;;
67528;SDS011;54366;51.980;5.856;2023-02-28T01:44:53;3.90;;;2.65;;
67528;SDS011;54366;51.980;5.856;2023-02-28T01:47:35;3.30;;;2.15;;
67528;SDS011;54366;51.980;5.856;2023-02-28T01:50:17;4.32;;;2.53;;
67528;SDS011;54366;51.980;5.856;2023-02-28T01:52:53;2.60;;;2.08;;
67528;SDS011;54366;51.980;5.856;2023-02-28T01:55:30;3.03;;;2.20;;
67528;SDS011;54366;51.980;5.856;2023-02-28T01:57:59;2.70;;;2.28;;
67528;SDS011;54366;51.980;5.856;2023-02-28T02:00:35;4.13;;;2.78;;
67528;SDS011;54366;51.980;5.856;2023-02-28T02:03:11;3.47;;;2.80;;
67528;SDS011;54366;51.980;5.856;2023-02-28T02:05:45;3.47;;;2.70;;
67528;SDS011;54366;51.980;5.856;2023-02-28T02:08:21;2.92;;;2.35;;
67528;SDS011;54366;51.980;5.856;2023-02-28T02:10:59;5.85;;;3.00;;
67528;SDS011;54366;51.980;5.856;2023-02-28T02:13:55;3.20;;;2.90;;
67528;SDS011;54366;51.980;5.856;2023-02-28T02:17:14;4.72;;;3.22;;
67528;SDS011;54366;51.980;5.856;2023-02-28T02:20:14;5.50;;;3.38;;
67528;SDS011;54366;51.980;5.856;2023-02-28T02:23:23;4.85;;;3.30;;
67528;SDS011;54366;51.980;5.856;2023-02-28T02:25:58;3.20;;;2.60;;
67528;SDS011;54366;51.980;5.856;2023-02-28T02:29:13;4.85;;;2.88;;
67528;SDS011;54366;51.980;5.856;2023-02-28T02:35:16;3.85;;;2.83;;
67528;SDS011;54366;51.980;5.856;2023-02-28T02:41:34;3.22;;;2.25;;
67528;SDS011;54366;51.980;5.856;2023-02-28T02:44:18;2.85;;;2.40;;
67528;SDS011;54366;51.980;5.856;2023-02-28T02:47:00;2.67;;;2.20;;
67528;SDS011;54366;51.980;5.856;2023-02-28T02:49:47;2.97;;;2.70;;
67528;SDS011;54366;51.980;5.856;2023-02-28T02:52:25;4.07;;;2.60;;
67528;SDS011;54366;51.980;5.856;2023-02-28T02:55:06;2.53;;;2.08;;
67528;SDS011;54366;51.980;5.856;2023-02-28T02:57:53;3.55;;;2.47;;
67528;SDS011;54366;51.980;5.856;2023-02-28T03:00:41;3.45;;;2.25;;
67528;SDS011;54366;51.980;5.856;2023-02-28T03:03:32;3.95;;;2.95;;
67528;SDS011;54366;51.980;5.856;2023-02-28T03:06:06;3.13;;;2.22;;
67528;SDS011;54366;51.980;5.856;2023-02-28T03:08:40;3.63;;;2.83;;
67528;SDS011;54366;51.980;5.856;2023-02-28T03:11:14;4.22;;;2.85;;
67528;SDS011;54366;51.980;5.856;2023-02-28T03:13:55;3.33;;;2.65;;
67528;SDS011;54366;51.980;5.856;2023-02-28T03:19:54;3.67;;;2.22;;
67528;SDS011;54366;51.980;5.856;2023-02-28T03:22:45;2.83;;;2.40;;
67528;SDS011;54366;51.980;5.856;2023-02-28T03:25:47;3.30;;;2.53;;
67528;SDS011;54366;51.980;5.856;2023-02-28T03:28:35;5.10;;;2.50;;
67528;SDS011;54366;51.980;5.856;2023-02-28T03:31:18;2.63;;;2.25;;
67528;SDS011;54366;51.980;5.856;2023-02-28T03:36:50;2.83;;;2.08;;
67528;SDS011;54366;51.980;5.856;2023-02-28T03:39:27;3.65;;;3.10;;
67528;SDS011;54366;51.980;5.856;2023-02-28T03:42:20;3.47;;;2.42;;
67528;SDS011;54366;51.980;5.856;2023-02-28T03:44:57;2.97;;;2.20;;
67528;SDS011;54366;51.980;5.856;2023-02-28T03:47:37;2.80;;;2.50;;
67528;SDS011;54366;51.980;5.856;2023-02-28T03:50:20;2.88;;;2.28;;
67528;SDS011;54366;51.980;5.856;2023-02-28T03:53:19;3.42;;;2.40;;
67528;SDS011;54366;51.980;5.856;2023-02-28T03:56:07;2.47;;;2.15;;
67528;SDS011;54366;51.980;5.856;2023-02-28T04:01:56;2.60;;;1.60;;
67528;SDS011;54366;51.980;5.856;2023-02-28T04:04:36;3.33;;;1.92;;
67528;SDS011;54366;51.980;5.856;2023-02-28T04:07:04;1.92;;;1.27;;
67528;SDS011;54366;51.980;5.856;2023-02-28T04:09:41;2.05;;;1.05;;
67528;SDS011;54366;51.980;5.856;2023-02-28T04:12:13;2.47;;;1.30;;
67528;SDS011;54366;51.980;5.856;2023-02-28T04:14:46;1.08;;;0.98;;
67528;SDS011;54366;51.980;5.856;2023-02-28T04:17:13;0.93;;;0.80;;
67528;SDS011;54366;51.980;5.856;2023-02-28T04:19:45;0.93;;;0.63;;
67528;SDS011;54366;51.980;5.856;2023-02-28T04:22:12;1.25;;;0.50;;
67528;SDS011;54366;51.980;5.856;2023-02-28T04:24:45;0.75;;;0.60;;
67528;SDS011;54366;51.980;5.856;2023-02-28T04:27:18;1.85;;;0.68;;
67528;SDS011;54366;51.980;5.856;2023-02-28T04:29:51;0.98;;;0.57;;
67528;SDS011;54366;51.980;5.856;2023-02-28T04:32:24;0.90;;;0.68;;
67528;SDS011;54366;51.980;5.856;2023-02-28T04:34:57;0.77;;;0.50;;
67528;SDS011;54366;51.980;5.856;2023-02-28T04:37:30;0.75;;;0.50;;
67528;SDS011;54366;51.980;5.856;2023-02-28T04:40:07;1.80;;;0.68;;
67528;SDS011;54366;51.980;5.856;2023-02-28T04:42:40;1.60;;;0.65;;
67528;SDS011;54366;51.980;5.856;2023-02-28T04:45:13;1.77;;;1.17;;
67528;SDS011;54366;51.980;5.856;2023-02-28T04:47:46;1.33;;;1.15;;
67528;SDS011;54366;51.980;5.856;2023-02-28T04:50:19;2.88;;;1.27;;
67528;SDS011;54366;51.980;5.856;2023-02-28T04:52:52;1.33;;;1.10;;
67528;SDS011;54366;51.980;5.856;2023-02-28T04:55:20;2.53;;;1.40;;
67528;SDS011;54366;51.980;5.856;2023-02-28T04:57:52;1.92;;;1.20;;
67528;SDS011;54366;51.980;5.856;2023-02-28T05:00:25;2.55;;;1.20;;
67528;SDS011;54366;51.980;5.856;2023-02-28T05:03:05;1.23;;;1.00;;
67528;SDS011;54366;51.980;5.856;2023-02-28T05:05:51;1.48;;;1.20;;
67528;SDS011;54366;51.980;5.856;2023-02-28T05:08:23;1.25;;;1.00;;
67528;SDS011;54366;51.980;5.856;2023-02-28T05:10:50;1.58;;;1.02;;
67528;SDS011;54366;51.980;5.856;2023-02-28T05:13:23;1.83;;;1.10;;
67528;SDS011;54366;51.980;5.856;2023-02-28T05:15:56;1.95;;;1.27;;
67528;SDS011;54366;51.980;5.856;2023-02-28T05:18:29;1.20;;;1.10;;
67528;SDS011;54366;51.980;5.856;2023-02-28T05:21:02;2.53;;;0.90;;
67528;SDS011;54366;51.980;5.856;2023-02-28T05:23:35;1.90;;;1.15;;
67528;SDS011;54366;51.980;5.856;2023-02-28T05:26:08;0.98;;;0.70;;
67528;SDS011;54366;51.980;5.856;2023-02-28T05:28:41;1.38;;;0.90;;
67528;SDS011;54366;51.980;5.856;2023-02-28T05:31:14;2.03;;;1.10;;
67528;SDS011;54366;51.980;5.856;2023-02-28T05:33:47;2.00;;;1.10;;
67528;SDS011;54366;51.980;5.856;2023-02-28T05:36:20;1.58;;;0.80;;
67528;SDS011;54366;51.980;5.856;2023-02-28T05:38:53;1.33;;;1.00;;
67528;SDS011;54366;51.980;5.856;2023-02-28T05:41:20;0.73;;;0.73;;
67528;SDS011;54366;51.980;5.856;2023-02-28T05:43:53;2.03;;;1.07;;
67528;SDS011;54366;51.980;5.856;2023-02-28T05:46:26;2.47;;;0.90;;
67528;SDS011;54366;51.980;5.856;2023-02-28T05:48:59;1.15;;;1.00;;
67528;SDS011;54366;51.980;5.856;2023-02-28T05:51:32;1.30;;;1.20;;
67528;SDS011;54366;51.980;5.856;2023-02-28T05:54:08;1.85;;;0.90;;
67528;SDS011;54366;51.980;5.856;2023-02-28T05:56:41;0.85;;;0.73;;
67528;SDS011;54366;51.980;5.856;2023-02-28T05:59:17;1.58;;;0.70;;
67528;SDS011;54366;51.980;5.856;2023-02-28T06:01:50;1.80;;;0.60;;
67528;SDS011;54366;51.980;5.856;2023-02-28T06:04:19;0.73;;;0.60;;
67528;SDS011;54366;51.980;5.856;2023-02-28T06:06:52;1.20;;;0.80;;
67528;SDS011;54366;51.980;5.856;2023-02-28T06:09:25;1.02;;;0.80;;
67528;SDS011;54366;51.980;5.856;2023-02-28T06:11:59;1.65;;;1.02;;
67528;SDS011;54366;51.980;5.856;2023-02-28T06:14:34;1.90;;;1.00;;
67528;SDS011;54366;51.980;5.856;2023-02-28T06:17:08;1.30;;;1.00;;
67528;SDS011;54366;51.980;5.856;2023-02-28T06:19:41;1.33;;;1.20;;
67528;SDS011;54366;51.980;5.856;2023-02-28T06:22:14;2.42;;;1.17;;
67528;SDS011;54366;51.980;5.856;2023-02-28T06:24:47;1.17;;;1.08;;
67528;SDS011;54366;51.980;5.856;2023-02-28T06:27:20;2.25;;;1.15;;
67528;SDS011;54366;51.980;5.856;2023-02-28T06:29:53;1.35;;;1.00;;
67528;SDS011;54366;51.980;5.856;2023-02-28T06:32:27;1.02;;;0.77;;
67528;SDS011;54366;51.980;5.856;2023-02-28T06:35:00;1.15;;;0.85;;
67528;SDS011;54366;51.980;5.856;2023-02-28T06:37:33;1.67;;;1.30;;
67528;SDS011;54366;51.980;5.856;2023-02-28T06:40:07;2.45;;;1.50;;
67528;SDS011;54366;51.980;5.856;2023-02-28T06:42:40;1.90;;;1.20;;
67528;SDS011;54366;51.980;5.856;2023-02-28T06:45:14;0.70;;;0.70;;
67528;SDS011;54366;51.980;5.856;2023-02-28T06:47:46;1.35;;;1.20;;
67528;SDS011;54366;51.980;5.856;2023-02-28T06:50:23;1.92;;;1.10;;
67528;SDS011;54366;51.980;5.856;2023-02-28T06:52:56;1.73;;;1.17;;
67528;SDS011;54366;51.980;5.856;2023-02-28T06:55:29;2.58;;;1.33;;
67528;SDS011;54366;51.980;5.856;2023-02-28T06:58:02;1.20;;;0.98;;
67528;SDS011;54366;51.980;5.856;2023-02-28T07:00:35;1.40;;;1.10;;
67528;SDS011;54366;51.980;5.856;2023-02-28T07:03:08;1.30;;;0.77;;
67528;SDS011;54366;51.980;5.856;2023-02-28T07:05:41;2.30;;;1.10;;
67528;SDS011;54366;51.980;5.856;2023-02-28T07:08:22;1.60;;;1.10;;
67528;SDS011;54366;51.980;5.856;2023-02-28T07:10:53;2.20;;;1.50;;
67528;SDS011;54366;51.980;5.856;2023-02-28T07:13:26;1.88;;;1.50;;
67528;SDS011;54366;51.980;5.856;2023-02-28T07:16:00;2.42;;;1.13;;
67528;SDS011;54366;51.980;5.856;2023-02-28T07:18:34;2.42;;;1.20;;
67528;SDS011;54366;51.980;5.856;2023-02-28T07:21:02;2.13;;;1.00;;
67528;SDS011;54366;51.980;5.856;2023-02-28T07:26:13;1.42;;;0.90;;
67528;SDS011;54366;51.980;5.856;2023-02-28T07:28:49;1.27;;;1.13;;
67528;SDS011;54366;51.980;5.856;2023-02-28T07:31:21;2.53;;;1.20;;
67528;SDS011;54366;51.980;5.856;2023-02-28T07:33:54;1.63;;;1.52;;
67528;SDS011;54366;51.980;5.856;2023-02-28T07:36:28;1.88;;;1.33;;
67528;SDS011;54366;51.980;5.856;2023-02-28T07:39:01;1.95;;;1.33;;
67528;SDS011;54366;51.980;5.856;2023-02-28T07:41:36;1.98;;;1.30;;
67528;SDS011;54366;51.980;5.856;2023-02-28T07:44:14;1.52;;;1.17;;
67528;SDS011;54366;51.980;5.856;2023-02-28T07:46:47;3.25;;;1.60;;
67528;SDS011;54366;51.980;5.856;2023-02-28T07:49:20;2.95;;;1.50;;
67528;SDS011;54366;51.980;5.856;2023-02-28T07:51:53;2.42;;;1.42;;
67528;SDS011;54366;51.980;5.856;2023-02-28T07:54:20;4.32;;;1.90;;
67528;SDS011;54366;51.980;5.856;2023-02-28T07:56:52;3.05;;;1.90;;
67528;SDS011;54366;51.980;5.856;2023-02-28T07:59:25;2.70;;;1.40;;
67528;SDS011;54366;51.980;5.856;2023-02-28T08:01:58;2.13;;;1.50;;
67528;SDS011;54366;51.980;5.856;2023-02-28T08:04:38;2.65;;;1.90;;
67528;SDS011;54366;51.980;5.856;2023-02-28T08:07:12;2.72;;;1.77;;
67528;SDS011;54366;51.980;5.856;2023-02-28T08:09:45;3.08;;;1.60;;
67528;SDS011;54366;51.980;5.856;2023-02-28T08:12:18;2.72;;;2.03;;
67528;SDS011;54366;51.980;5.856;2023-02-28T08:14:51;2.08;;;1.73;;
67528;SDS011;54366;51.980;5.856;2023-02-28T08:17:18;1.40;;;1.30;;
67528;SDS011;54366;51.980;5.856;2023-02-28T08:19:50;3.97;;;1.58;;
67528;SDS011;54366;51.980;5.856;2023-02-28T08:22:23;1.42;;;1.20;;
67528;SDS011;54366;51.980;5.856;2023-02-28T08:24:56;2.25;;;1.58;;
67528;SDS011;54366;51.980;5.856;2023-02-28T08:27:29;2.33;;;1.70;;
67528;SDS011;54366;51.980;5.856;2023-02-28T08:30:03;2.05;;;1.30;;
67528;SDS011;54366;51.980;5.856;2023-02-28T08:32:35;2.63;;;1.75;;
67528;SDS011;54366;51.980;5.856;2023-02-28T08:35:08;2.50;;;1.40;;
67528;SDS011;54366;51.980;5.856;2023-02-28T08:37:42;2.28;;;1.40;;
67528;SDS011;54366;51.980;5.856;2023-02-28T08:40:23;2.90;;;1.55;;
67528;SDS011;54366;51.980;5.856;2023-02-28T08:43:10;1.83;;;1.23;;
67528;SDS011;54366;51.980;5.856;2023-02-28T08:45:42;1.63;;;1.35;;
67528;SDS011;54366;51.980;5.856;2023-02-28T08:48:15;1.48;;;1.25;;
67528;SDS011;54366;51.980;5.856;2023-02-28T08:50:42;1.77;;;1.20;;
67528;SDS011;54366;51.980;5.856;2023-02-28T08:53:14;2.28;;;1.50;;
67528;SDS011;54366;51.980;5.856;2023-02-28T08:55:54;1.80;;;1.42;;
67528;SDS011;54366;51.980;5.856;2023-02-28T08:58:28;3.03;;;1.40;;
67528;SDS011;54366;51.980;5.856;2023-02-28T09:01:22;3.42;;;1.20;;
67528;SDS011;54366;51.980;5.856;2023-02-28T09:03:57;1.38;;;0.90;;
67528;SDS011;54366;51.980;5.856;2023-02-28T09:06:29;1.10;;;1.00;;
67528;SDS011;54366;51.980;5.856;2023-02-28T09:09:10;0.90;;;0.80;;
67528;SDS011;54366;51.980;5.856;2023-02-28T09:11:43;1.88;;;1.02;;
67528;SDS011;54366;51.980;5.856;2023-02-28T09:14:16;1.60;;;0.90;;
67528;SDS011;54366;51.980;5.856;2023-02-28T09:16:49;1.52;;;1.10;;
67528;SDS011;54366;51.980;5.856;2023-02-28T09:19:22;4.25;;;1.20;;
67528;SDS011;54366;51.980;5.856;2023-02-28T09:21:55;1.35;;;0.80;;
67528;SDS011;54366;51.980;5.856;2023-02-28T09:24:28;1.27;;;0.88;;
67528;SDS011;54366;51.980;5.856;2023-02-28T09:27:04;1.67;;;1.00;;
67528;SDS011;54366;51.980;5.856;2023-02-28T09:29:36;1.05;;;0.95;;
67528;SDS011;54366;51.980;5.856;2023-02-28T09:32:09;2.38;;;1.10;;
67528;SDS011;54366;51.980;5.856;2023-02-28T09:34:42;1.52;;;0.95;;
67528;SDS011;54366;51.980;5.856;2023-02-28T09:37:09;0.70;;;0.70;;
67528;SDS011;54366;51.980;5.856;2023-02-28T09:39:41;1.52;;;0.70;;
67528;SDS011;54366;51.980;5.856;2023-02-28T09:42:18;1.15;;;0.70;;
67528;SDS011;54366;51.980;5.856;2023-02-28T09:44:59;1.85;;;0.75;;
67528;SDS011;54366;51.980;5.856;2023-02-28T09:47:38;1.35;;;0.90;;
67528;SDS011;54366;51.980;5.856;2023-02-28T09:51:00;1.40;;;0.90;;
67528;SDS011;54366;51.980;5.856;2023-02-28T09:53:33;1.35;;;0.95;;
67528;SDS011;54366;51.980;5.856;2023-02-28T09:56:12;1.45;;;1.30;;
67528;SDS011;54366;51.980;5.856;2023-02-28T09:59:51;1.52;;;0.95;;
67528;SDS011;54366;51.980;5.856;2023-02-28T10:05:52;1.88;;;1.20;;
67528;SDS011;54366;51.980;5.856;2023-02-28T10:08:34;2.13;;;1.30;;
67528;SDS011;54366;51.980;5.856;2023-02-28T10:11:15;1.50;;;1.17;;
67528;SDS011;54366;51.980;5.856;2023-02-28T10:13:53;1.15;;;1.05;;
67528;SDS011;54366;51.980;5.856;2023-02-28T10:17:11;1.38;;;1.00;;
67528;SDS011;54366;51.980;5.856;2023-02-28T10:23:04;2.25;;;0.82;;
67528;SDS011;54366;51.980;5.856;2023-02-28T10:26:01;1.42;;;0.98;;
67528;SDS011;54366;51.980;5.856;2023-02-28T10:28:44;0.85;;;0.70;;
67528;SDS011;54366;51.980;5.856;2023-02-28T10:31:18;1.15;;;1.00;;
67528;SDS011;54366;51.980;5.856;2023-02-28T10:33:51;1.90;;;0.90;;
67528;SDS011;54366;51.980;5.856;2023-02-28T10:36:24;1.23;;;0.80;;
67528;SDS011;54366;51.980;5.856;2023-02-28T10:38:51;0.90;;;0.80;;
67528;SDS011;54366;51.980;5.856;2023-02-28T10:41:30;1.63;;;1.00;;
67528;SDS011;54366;51.980;5.856;2023-02-28T10:44:28;1.95;;;1.02;;
67528;SDS011;54366;51.980;5.856;2023-02-28T10:47:00;1.25;;;0.80;;
67528;SDS011;54366;51.980;5.856;2023-02-28T10:49:34;2.28;;;1.13;;
67528;SDS011;54366;51.980;5.856;2023-02-28T10:52:09;0.82;;;0.77;;
67528;SDS011;54366;51.980;5.856;2023-02-28T10:54:42;1.48;;;0.77;;
67528;SDS011;54366;51.980;5.856;2023-02-28T10:57:22;1.33;;;0.90;;
67528;SDS011;54366;51.980;5.856;2023-02-28T11:00:34;1.67;;;1.08;;
67528;SDS011;54366;51.980;5.856;2023-02-28T11:03:05;1.17;;;0.98;;
67528;SDS011;54366;51.980;5.856;2023-02-28T11:06:11;1.10;;;0.80;;
67528;SDS011;54366;51.980;5.856;2023-02-28T11:09:04;1.27;;;0.90;;
67528;SDS011;54366;51.980;5.856;2023-02-28T11:11:46;1.40;;;1.02;;
67528;SDS011;54366;51.980;5.856;2023-02-28T11:17:02;1.90;;;1.23;;
67528;SDS011;54366;51.980;5.856;2023-02-28T11:19:55;1.02;;;0.70;;
67528;SDS011;54366;51.980;5.856;2023-02-28T11:22:39;1.98;;;0.80;;
67528;SDS011;54366;51.980;5.856;2023-02-28T11:25:21;1.13;;;0.70;;
67528;SDS011;54366;51.980;5.856;2023-02-28T11:28:01;0.80;;;0.80;;
67528;SDS011;54366;51.980;5.856;2023-02-28T11:30:39;0.98;;;0.70;;
67528;SDS011;54366;51.980;5.856;2023-02-28T11:33:28;1.60;;;0.70;;
67528;SDS011;54366;51.980;5.856;2023-02-28T11:36:10;2.33;;;1.13;;
67528;SDS011;54366;51.980;5.856;2023-02-28T11:38:46;1.83;;;0.93;;
67528;SDS011;54366;51.980;5.856;2023-02-28T11:44:58;1.80;;;1.20;;
67528;SDS011;54366;51.980;5.856;2023-02-28T11:51:21;1.45;;;0.80;;
67528;SDS011;54366;51.980;5.856;2023-02-28T11:54:23;1.38;;;1.10;;
67528;SDS011;54366;51.980;5.856;2023-02-28T11:57:32;1.30;;;0.90;;
67528;SDS011;54366;51.980;5.856;2023-02-28T12:09:39;1.45;;;0.90;;
67528;SDS011;54366;51.980;5.856;2023-02-28T12:16:42;1.38;;;1.10;;
67528;SDS011;54366;51.980;5.856;2023-02-28T12:22:28;1.67;;;1.00;;
67528;SDS011;54366;51.980;5.856;2023-02-28T12:25:24;2.17;;;1.10;;
67528;SDS011;54366;51.980;5.856;2023-02-28T12:28:20;2.35;;;1.23;;
67528;SDS011;54366;51.980;5.856;2023-02-28T12:31:01;1.45;;;1.35;;
67528;SDS011;54366;51.980;5.856;2023-02-28T12:33:45;1.92;;;1.10;;
67528;SDS011;54366;51.980;5.856;2023-02-28T12:36:21;1.40;;;1.30;;
67528;SDS011;54366;51.980;5.856;2023-02-28T12:39:07;1.25;;;1.15;;
67528;SDS011;54366;51.980;5.856;2023-02-28T12:41:54;2.13;;;1.08;;
67528;SDS011;54366;51.980;5.856;2023-02-28T12:44:44;1.73;;;1.42;;
67528;SDS011;54366;51.980;5.856;2023-02-28T12:47:20;2.72;;;1.52;;
67528;SDS011;54366;51.980;5.856;2023-02-28T12:49:58;1.85;;;1.75;;
67528;SDS011;54366;51.980;5.856;2023-02-28T12:52:56;3.38;;;1.85;;
67528;SDS011;54366;51.980;5.856;2023-02-28T12:58:56;1.33;;;1.20;;
67528;SDS011;54366;51.980;5.856;2023-02-28T13:01:49;1.42;;;1.23;;
67528;SDS011;54366;51.980;5.856;2023-02-28T13:05:17;1.70;;;1.60;;
67528;SDS011;54366;51.980;5.856;2023-02-28T13:11:29;1.73;;;1.00;;
67528;SDS011;54366;51.980;5.856;2023-02-28T13:14:05;0.90;;;0.90;;
67528;SDS011;54366;51.980;5.856;2023-02-28T13:17:01;1.27;;;1.17;;
67528;SDS011;54366;51.980;5.856;2023-02-28T13:19:45;1.55;;;1.27;;
67528;SDS011;54366;51.980;5.856;2023-02-28T13:22:37;1.20;;;1.10;;
67528;SDS011;54366;51.980;5.856;2023-02-28T13:31:41;1.15;;;0.93;;
67528;SDS011;54366;51.980;5.856;2023-02-28T13:38:13;1.58;;;1.23;;
67528;SDS011;54366;51.980;5.856;2023-02-28T13:40:56;1.48;;;1.20;;
67528;SDS011;54366;51.980;5.856;2023-02-28T13:44:22;1.75;;;1.00;;
67528;SDS011;54366;51.980;5.856;2023-02-28T13:49:49;1.40;;;0.82;;
67528;SDS011;54366;51.980;5.856;2023-02-28T13:52:23;1.70;;;1.27;;
67528;SDS011;54366;51.980;5.856;2023-02-28T14:01:40;2.33;;;1.40;;
67528;SDS011;54366;51.980;5.856;2023-02-28T14:07:58;1.58;;;1.40;;
67528;SDS011;54366;51.980;5.856;2023-02-28T14:10:39;2.20;;;1.60;;
67528;SDS011;54366;51.980;5.856;2023-02-28T14:16:23;2.47;;;1.30;;
67528;SDS011;54366;51.980;5.856;2023-02-28T14:19:00;1.98;;;1.40;;
67528;SDS011;54366;51.980;5.856;2023-02-28T14:21:38;3.38;;;1.30;;
67528;SDS011;54366;51.980;5.856;2023-02-28T14:31:22;1.40;;;1.30;;
67528;SDS011;54366;51.980;5.856;2023-02-28T14:34:17;1.63;;;1.30;;
67528;SDS011;54366;51.980;5.856;2023-02-28T14:37:19;1.30;;;1.20;;
67528;SDS011;54366;51.980;5.856;2023-02-28T14:39:57;2.08;;;1.25;;
67528;SDS011;54366;51.980;5.856;2023-02-28T14:42:35;1.20;;;1.10;;
67528;SDS011;54366;51.980;5.856;2023-02-28T14:45:19;1.55;;;1.10;;
67528;SDS011;54366;51.980;5.856;2023-02-28T14:47:52;1.52;;;1.30;;
67528;SDS011;54366;51.980;5.856;2023-02-28T14:50:36;1.35;;;1.10;;
67528;SDS011;54366;51.980;5.856;2023-02-28T14:53:15;1.58;;;1.33;;
67528;SDS011;54366;51.980;5.856;2023-02-28T14:55:50;2.60;;;1.30;;
67528;SDS011;54366;51.980;5.856;2023-02-28T14:58:22;1.60;;;1.30;;
67528;SDS011;54366;51.980;5.856;2023-02-28T15:00:59;1.30;;;1.20;;
67528;SDS011;54366;51.980;5.856;2023-02-28T15:03:33;1.27;;;1.00;;
67528;SDS011;54366;51.980;5.856;2023-02-28T15:06:14;1.83;;;1.13;;
67528;SDS011;54366;51.980;5.856;2023-02-28T15:09:06;1.02;;;0.93;;
67528;SDS011;54366;51.980;5.856;2023-02-28T15:11:40;1.58;;;1.02;;
67528;SDS011;54366;51.980;5.856;2023-02-28T15:14:19;1.30;;;1.20;;
67528;SDS011;54366;51.980;5.856;2023-02-28T15:16:57;1.70;;;1.33;;
67528;SDS011;54366;51.980;5.856;2023-02-28T15:19:34;1.30;;;1.10;;
67528;SDS011;54366;51.980;5.856;2023-02-28T15:22:15;1.38;;;1.10;;
67528;SDS011;54366;51.980;5.856;2023-02-28T15:24:53;1.25;;;1.13;;
67528;SDS011;54366;51.980;5.856;2023-02-28T15:27:28;1.05;;;0.77;;
67528;SDS011;54366;51.980;5.856;2023-02-28T15:30:05;0.90;;;0.90;;
67528;SDS011;54366;51.980;5.856;2023-02-28T15:32:39;1.85;;;1.13;;
67528;SDS011;54366;51.980;5.856;2023-02-28T15:35:20;2.53;;;1.30;;
67528;SDS011;54366;51.980;5.856;2023-02-28T15:41:28;1.95;;;1.17;;
67528;SDS011;54366;51.980;5.856;2023-02-28T15:44:23;1.33;;;0.95;;
67528;SDS011;54366;51.980;5.856;2023-02-28T15:47:14;1.30;;;1.20;;
67528;SDS011;54366;51.980;5.856;2023-02-28T15:55:21;2.42;;;1.00;;
67528;SDS011;54366;51.980;5.856;2023-02-28T15:58:00;2.08;;;0.98;;
67528;SDS011;54366;51.980;5.856;2023-02-28T16:00:33;1.20;;;1.10;;
67528;SDS011;54366;51.980;5.856;2023-02-28T16:06:23;1.85;;;1.23;;
67528;SDS011;54366;51.980;5.856;2023-02-28T16:09:03;1.92;;;1.48;;
67528;SDS011;54366;51.980;5.856;2023-02-28T16:11:41;2.20;;;1.38;;
67528;SDS011;54366;51.980;5.856;2023-02-28T16:14:22;1.13;;;1.00;;
67528;SDS011;54366;51.980;5.856;2023-02-28T16:17:04;1.30;;;1.02;;
67528;SDS011;54366;51.980;5.856;2023-02-28T16:19:48;2.00;;;1.58;;
67528;SDS011;54366;51.980;5.856;2023-02-28T16:22:21;1.48;;;1.30;;
67528;SDS011;54366;51.980;5.856;2023-02-28T16:24:53;2.05;;;1.65;;
67528;SDS011;54366;51.980;5.856;2023-02-28T16:27:30;3.00;;;2.10;;
67528;SDS011;54366;51.980;5.856;2023-02-28T16:30:05;2.22;;;1.83;;
67528;SDS011;54366;51.980;5.856;2023-02-28T16:32:38;4.10;;;3.63;;
67528;SDS011;54366;51.980;5.856;2023-02-28T16:35:12;5.75;;;2.10;;
67528;SDS011;54366;51.980;5.856;2023-02-28T16:37:46;1.50;;;1.40;;
67528;SDS011;54366;51.980;5.856;2023-02-28T16:40:25;1.60;;;1.45;;
67528;SDS011;54366;51.980;5.856;2023-02-28T16:43:11;2.53;;;1.85;;
67528;SDS011;54366;51.980;5.856;2023-02-28T16:45:49;1.73;;;1.60;;
67528;SDS011;54366;51.980;5.856;2023-02-28T16:48:29;1.83;;;1.60;;
67528;SDS011;54366;51.980;5.856;2023-02-28T16:51:02;2.38;;;1.60;;
67528;SDS011;54366;51.980;5.856;2023-02-28T16:53:36;2.92;;;1.95;;
67528;SDS011;54366;51.980;5.856;2023-02-28T16:56:28;3.50;;;3.20;;
67528;SDS011;54366;51.980;5.856;2023-02-28T16:59:01;1.90;;;1.80;;
67528;SDS011;54366;51.980;5.856;2023-02-28T17:01:28;1.55;;;1.20;;
67528;SDS011;54366;51.980;5.856;2023-02-28T17:04:00;1.50;;;1.40;;
67528;SDS011;54366;51.980;5.856;2023-02-28T17:06:33;1.38;;;1.20;;
67528;SDS011;54366;51.980;5.856;2023-02-28T17:09:17;1.48;;;1.00;;
67528;SDS011;54366;51.980;5.856;2023-02-28T17:11:51;1.00;;;0.85;;
67528;SDS011;54366;51.980;5.856;2023-02-28T17:14:24;2.13;;;1.25;;
67528;SDS011;54366;51.980;5.856;2023-02-28T17:16:57;2.75;;;1.70;;
67528;SDS011;54366;51.980;5.856;2023-02-28T17:19:30;2.47;;;1.95;;
67528;SDS011;54366;51.980;5.856;2023-02-28T17:22:03;2.90;;;2.05;;
67528;SDS011;54366;51.980;5.856;2023-02-28T17:24:36;1.58;;;1.42;;
67528;SDS011;54366;51.980;5.856;2023-02-28T17:27:11;1.77;;;1.45;;
67528;SDS011;54366;51.980;5.856;2023-02-28T17:29:44;1.40;;;1.20;;
67528;SDS011;54366;51.980;5.856;2023-02-28T17:32:17;1.40;;;1.25;;
67528;SDS011;54366;51.980;5.856;2023-02-28T17:37:23;2.15;;;1.25;;
67528;SDS011;54366;51.980;5.856;2023-02-28T17:39:56;2.25;;;1.30;;
67528;SDS011;54366;51.980;5.856;2023-02-28T17:42:36;1.65;;;1.38;;